sensor_id;sensor_type;location;lat;lon;timestamp;temperature;humidity
8463;DHT22;4268;52.506;13.462;2023-08-20T00:01:57;25.00;99.90
8463;DHT22;4268;52.506;13.462;2023-08-20T00:04:25;25.00;99.90
8463;DHT22;4268;52.506;13.462;2023-08-20T00:06:51;25.00;99.90
8463;DHT22;4268;52.506;13.462;2023-08-20T00:09:17;25.00;99.90
8463;DHT22;4268;52.506;13.462;2023-08-20T00:11:42;24.90;99.90
8463;DHT22;4268;52.506;13.462;2023-08-20T00:14:14;24.90;99.90
8463;DHT22;4268;52.506;13.462;2023-08-20T00:16:40;24.90;99.90
8463;DHT22;4268;52.506;13.462;2023-08-20T00:19:06;24.90;99.90
8463;DHT22;4268;52.506;13.462;2023-08-20T00:21:32;24.90;99.90
8463;DHT22;4268;52.506;13.462;2023-08-20T00:23:58;24.90;99.90
8463;DHT22;4268;52.506;13.462;2023-08-20T00:26:24;24.80;99.90
8463;DHT22;4268;52.506;13.462;2023-08-20T00:28:49;24.90;99.90
8463;DHT22;4268;52.506;13.462;2023-08-20T00:31:15;24.90;99.90
8463;DHT22;4268;52.506;13.462;2023-08-20T00:33:40;24.90;99.90
8463;DHT22;4268;52.506;13.462;2023-08-20T00:36:05;24.90;99.90
8463;DHT22;4268;52.506;13.462;2023-08-20T00:38:31;24.80;99.90
8463;DHT22;4268;52.506;13.462;2023-08-20T00:40:56;24.80;99.90
8463;DHT22;4268;52.506;13.462;2023-08-20T00:43:22;24.80;99.90
8463;DHT22;4268;52.506;13.462;2023-08-20T00:45:47;24.80;99.90
8463;DHT22;4268;52.506;13.462;2023-08-20T00:48:13;24.80;99.90
8463;DHT22;4268;52.506;13.462;2023-08-20T00:50:40;24.80;99.90
8463;DHT22;4268;52.506;13.462;2023-08-20T00:53:07;24.70;99.90
8463;DHT22;4268;52.506;13.462;2023-08-20T00:55:33;24.80;99.90
8463;DHT22;4268;52.506;13.462;2023-08-20T00:57:59;24.80;99.90
8463;DHT22;4268;52.506;13.462;2023-08-20T01:00:25;24.80;99.90
8463;DHT22;4268;52.506;13.462;2023-08-20T01:02:50;24.80;99.90
8463;DHT22;4268;52.506;13.462;2023-08-20T01:05:16;24.80;99.90
8463;DHT22;4268;52.506;13.462;2023-08-20T01:07:48;24.90;99.90
8463;DHT22;4268;52.506;13.462;2023-08-20T01:13:00;24.80;99.90
8463;DHT22;4268;52.506;13.462;2023-08-20T01:15:26;24.90;99.90
8463;DHT22;4268;52.506;13.462;2023-08-20T01:17:51;24.80;99.90
8463;DHT22;4268;52.506;13.462;2023-08-20T01:20:17;24.90;99.90
8463;DHT22;4268;52.506;13.462;2023-08-20T01:25:24;24.90;99.90
8463;DHT22;4268;52.506;13.462;2023-08-20T01:28:29;24.90;99.90
8463;DHT22;4268;52.506;13.462;2023-08-20T01:30:57;24.80;99.90
8463;DHT22;4268;52.506;13.462;2023-08-20T01:33:23;24.80;99.90
8463;DHT22;4268;52.506;13.462;2023-08-20T01:35:52;24.80;99.90
8463;DHT22;4268;52.506;13.462;2023-08-20T01:38:18;24.80;99.90
8463;DHT22;4268;52.506;13.462;2023-08-20T01:40:44;24.80;99.90
8463;DHT22;4268;52.506;13.462;2023-08-20T01:43:10;24.70;99.90
8463;DHT22;4268;52.506;13.462;2023-08-20T01:45:35;24.70;99.90
8463;DHT22;4268;52.506;13.462;2023-08-20T01:48:01;24.70;99.90
8463;DHT22;4268;52.506;13.462;2023-08-20T01:50:26;24.60;99.90
8463;DHT22;4268;52.506;13.462;2023-08-20T01:52:52;24.60;99.90
8463;DHT22;4268;52.506;13.462;2023-08-20T01:55:17;24.50;99.90
8463;DHT22;4268;52.506;13.462;2023-08-20T01:57:43;24.60;99.90
8463;DHT22;4268;52.506;13.462;2023-08-20T02:00:09;25.50;99.90
8463;DHT22;4268;52.506;13.462;2023-08-20T02:02:34;24.50;99.90
8463;DHT22;4268;52.506;13.462;2023-08-20T02:05:00;24.60;99.90
8463;DHT22;4268;52.506;13.462;2023-08-20T02:07:26;24.40;99.90
8463;DHT22;4268;52.506;13.462;2023-08-20T02:09:51;24.30;99.90
8463;DHT22;4268;52.506;13.462;2023-08-20T02:12:17;24.30;99.90
8463;DHT22;4268;52.506;13.462;2023-08-20T02:14:43;24.30;99.90
8463;DHT22;4268;52.506;13.462;2023-08-20T02:17:08;24.30;99.90
8463;DHT22;4268;52.506;13.462;2023-08-20T02:19:34;24.20;99.90
8463;DHT22;4268;52.506;13.462;2023-08-20T02:21:59;24.20;99.90
8463;DHT22;4268;52.506;13.462;2023-08-20T02:24:25;24.20;99.90
8463;DHT22;4268;52.506;13.462;2023-08-20T02:26:50;24.20;99.90
8463;DHT22;4268;52.506;13.462;2023-08-20T02:29:16;24.20;99.90
8463;DHT22;4268;52.506;13.462;2023-08-20T02:31:41;24.20;99.90
8463;DHT22;4268;52.506;13.462;2023-08-20T02:34:07;24.10;99.90
8463;DHT22;4268;52.506;13.462;2023-08-20T02:36:32;24.10;99.90
8463;DHT22;4268;52.506;13.462;2023-08-20T02:38:58;24.10;99.90
8463;DHT22;4268;52.506;13.462;2023-08-20T02:41:23;24.00;99.90
8463;DHT22;4268;52.506;13.462;2023-08-20T02:43:49;24.00;99.90
8463;DHT22;4268;52.506;13.462;2023-08-20T02:46:14;24.00;99.90
8463;DHT22;4268;52.506;13.462;2023-08-20T02:48:40;23.90;99.90
8463;DHT22;4268;52.506;13.462;2023-08-20T02:51:05;23.90;99.90
8463;DHT22;4268;52.506;13.462;2023-08-20T02:53:31;23.90;99.90
8463;DHT22;4268;52.506;13.462;2023-08-20T02:55:56;23.90;99.90
8463;DHT22;4268;52.506;13.462;2023-08-20T02:58:22;23.90;99.90
8463;DHT22;4268;52.506;13.462;2023-08-20T03:00:48;23.90;99.90
8463;DHT22;4268;52.506;13.462;2023-08-20T03:03:14;23.80;99.90
8463;DHT22;4268;52.506;13.462;2023-08-20T03:05:39;23.90;99.90
8463;DHT22;4268;52.506;13.462;2023-08-20T03:08:05;23.70;99.90
8463;DHT22;4268;52.506;13.462;2023-08-20T03:10:31;23.70;99.90
8463;DHT22;4268;52.506;13.462;2023-08-20T03:13:00;23.70;99.90
8463;DHT22;4268;52.506;13.462;2023-08-20T03:15:27;23.60;99.90
8463;DHT22;4268;52.506;13.462;2023-08-20T03:17:52;23.60;99.90
8463;DHT22;4268;52.506;13.462;2023-08-20T03:20:18;23.60;99.90
8463;DHT22;4268;52.506;13.462;2023-08-20T03:22:43;23.60;99.90
8463;DHT22;4268;52.506;13.462;2023-08-20T03:25:09;23.60;99.90
8463;DHT22;4268;52.506;13.462;2023-08-20T03:27:34;23.50;99.90
8463;DHT22;4268;52.506;13.462;2023-08-20T03:30:00;23.50;99.90
8463;DHT22;4268;52.506;13.462;2023-08-20T03:32:26;23.50;99.90
8463;DHT22;4268;52.506;13.462;2023-08-20T03:34:51;23.50;99.90
8463;DHT22;4268;52.506;13.462;2023-08-20T03:37:18;23.40;99.90
8463;DHT22;4268;52.506;13.462;2023-08-20T03:39:44;23.40;99.90
8463;DHT22;4268;52.506;13.462;2023-08-20T03:42:09;23.30;99.90
8463;DHT22;4268;52.506;13.462;2023-08-20T03:44:35;23.30;99.90
8463;DHT22;4268;52.506;13.462;2023-08-20T03:47:00;23.40;99.90
8463;DHT22;4268;52.506;13.462;2023-08-20T03:49:26;23.30;99.90
8463;DHT22;4268;52.506;13.462;2023-08-20T03:51:51;23.20;99.90
8463;DHT22;4268;52.506;13.462;2023-08-20T03:54:17;23.20;99.90
8463;DHT22;4268;52.506;13.462;2023-08-20T03:56:42;23.20;99.90
8463;DHT22;4268;52.506;13.462;2023-08-20T03:59:08;23.20;99.90
8463;DHT22;4268;52.506;13.462;2023-08-20T04:01:34;23.20;99.90
8463;DHT22;4268;52.506;13.462;2023-08-20T04:04:01;23.10;99.90
8463;DHT22;4268;52.506;13.462;2023-08-20T04:06:26;23.10;99.90
8463;DHT22;4268;52.506;13.462;2023-08-20T04:08:52;23.10;99.90
8463;DHT22;4268;52.506;13.462;2023-08-20T04:11:17;23.10;99.90
8463;DHT22;4268;52.506;13.462;2023-08-20T04:13:43;23.10;99.90
8463;DHT22;4268;52.506;13.462;2023-08-20T04:16:09;23.10;99.90
8463;DHT22;4268;52.506;13.462;2023-08-20T04:18:35;23.10;99.90
8463;DHT22;4268;52.506;13.462;2023-08-20T04:21:00;23.00;99.90
8463;DHT22;4268;52.506;13.462;2023-08-20T04:23:26;23.00;99.90
8463;DHT22;4268;52.506;13.462;2023-08-20T04:25:51;23.00;99.90
8463;DHT22;4268;52.506;13.462;2023-08-20T04:28:17;23.00;99.90
8463;DHT22;4268;52.506;13.462;2023-08-20T04:30:42;23.00;99.90
8463;DHT22;4268;52.506;13.462;2023-08-20T04:33:09;23.00;99.90
8463;DHT22;4268;52.506;13.462;2023-08-20T04:35:35;23.00;99.90
8463;DHT22;4268;52.506;13.462;2023-08-20T04:38:01;23.00;99.90
8463;DHT22;4268;52.506;13.462;2023-08-20T04:40:26;23.10;99.90
8463;DHT22;4268;52.506;13.462;2023-08-20T04:42:52;23.10;99.90
8463;DHT22;4268;52.506;13.462;2023-08-20T04:45:18;23.10;99.90
8463;DHT22;4268;52.506;13.462;2023-08-20T04:47:45;23.10;99.90
8463;DHT22;4268;52.506;13.462;2023-08-20T04:50:11;23.20;99.90
8463;DHT22;4268;52.506;13.462;2023-08-20T04:52:36;23.10;99.90
8463;DHT22;4268;52.506;13.462;2023-08-20T04:55:03;23.20;99.90
8463;DHT22;4268;52.506;13.462;2023-08-20T04:57:28;23.20;99.90
8463;DHT22;4268;52.506;13.462;2023-08-20T04:59:54;23.20;99.90
8463;DHT22;4268;52.506;13.462;2023-08-20T05:02:19;23.20;99.90
8463;DHT22;4268;52.506;13.462;2023-08-20T05:04:45;23.10;99.90
8463;DHT22;4268;52.506;13.462;2023-08-20T05:07:11;23.10;99.90
8463;DHT22;4268;52.506;13.462;2023-08-20T05:09:36;23.20;99.90
8463;DHT22;4268;52.506;13.462;2023-08-20T05:12:02;23.20;99.90
8463;DHT22;4268;52.506;13.462;2023-08-20T05:14:28;23.20;99.90
8463;DHT22;4268;52.506;13.462;2023-08-20T05:16:54;23.30;99.90
8463;DHT22;4268;52.506;13.462;2023-08-20T05:19:19;23.30;99.90
8463;DHT22;4268;52.506;13.462;2023-08-20T05:21:45;23.30;99.90
8463;DHT22;4268;52.506;13.462;2023-08-20T05:24:10;23.40;99.90
8463;DHT22;4268;52.506;13.462;2023-08-20T05:26:36;23.40;99.90
8463;DHT22;4268;52.506;13.462;2023-08-20T05:29:01;23.50;99.90
8463;DHT22;4268;52.506;13.462;2023-08-20T05:31:27;23.60;99.90
8463;DHT22;4268;52.506;13.462;2023-08-20T05:33:52;23.70;99.90
8463;DHT22;4268;52.506;13.462;2023-08-20T05:36:17;23.80;99.90
8463;DHT22;4268;52.506;13.462;2023-08-20T05:38:43;23.90;99.90
8463;DHT22;4268;52.506;13.462;2023-08-20T05:41:08;24.00;99.90
8463;DHT22;4268;52.506;13.462;2023-08-20T05:43:34;24.20;99.90
8463;DHT22;4268;52.506;13.462;2023-08-20T05:46:02;24.20;99.90
8463;DHT22;4268;52.506;13.462;2023-08-20T05:48:27;24.40;99.90
8463;DHT22;4268;52.506;13.462;2023-08-20T05:50:53;24.40;99.90
8463;DHT22;4268;52.506;13.462;2023-08-20T05:53:18;24.50;99.90
8463;DHT22;4268;52.506;13.462;2023-08-20T05:55:44;24.50;99.90
8463;DHT22;4268;52.506;13.462;2023-08-20T05:58:09;24.50;99.90
8463;DHT22;4268;52.506;13.462;2023-08-20T06:00:35;24.60;99.90
8463;DHT22;4268;52.506;13.462;2023-08-20T06:03:01;24.60;99.90
8463;DHT22;4268;52.506;13.462;2023-08-20T06:05:26;24.80;99.90
8463;DHT22;4268;52.506;13.462;2023-08-20T06:07:52;24.60;99.90
8463;DHT22;4268;52.506;13.462;2023-08-20T06:10:17;24.90;99.90
8463;DHT22;4268;52.506;13.462;2023-08-20T06:12:43;25.10;99.90
8463;DHT22;4268;52.506;13.462;2023-08-20T06:15:09;25.20;99.90
8463;DHT22;4268;52.506;13.462;2023-08-20T06:17:34;25.20;99.90
8463;DHT22;4268;52.506;13.462;2023-08-20T06:20:00;25.40;99.90
8463;DHT22;4268;52.506;13.462;2023-08-20T06:22:26;25.50;99.90
8463;DHT22;4268;52.506;13.462;2023-08-20T06:24:51;25.50;99.90
8463;DHT22;4268;52.506;13.462;2023-08-20T06:27:18;25.30;99.90
8463;DHT22;4268;52.506;13.462;2023-08-20T06:29:43;25.20;99.90
8463;DHT22;4268;52.506;13.462;2023-08-20T06:32:09;25.00;99.90
8463;DHT22;4268;52.506;13.462;2023-08-20T06:34:35;25.00;99.90
8463;DHT22;4268;52.506;13.462;2023-08-20T06:37:01;25.90;99.90
8463;DHT22;4268;52.506;13.462;2023-08-20T06:39:27;24.60;99.90
8463;DHT22;4268;52.506;13.462;2023-08-20T06:41:53;24.50;99.90
8463;DHT22;4268;52.506;13.462;2023-08-20T06:44:18;24.80;99.90
8463;DHT22;4268;52.506;13.462;2023-08-20T06:46:44;25.20;99.90
8463;DHT22;4268;52.506;13.462;2023-08-20T06:49:10;25.90;99.90
8463;DHT22;4268;52.506;13.462;2023-08-20T06:51:35;25.50;99.90
8463;DHT22;4268;52.506;13.462;2023-08-20T06:54:02;25.50;99.90
8463;DHT22;4268;52.506;13.462;2023-08-20T06:56:27;25.50;99.90
8463;DHT22;4268;52.506;13.462;2023-08-20T06:58:53;25.40;99.90
8463;DHT22;4268;52.506;13.462;2023-08-20T07:01:19;25.20;99.90
8463;DHT22;4268;52.506;13.462;2023-08-20T07:03:45;25.10;99.90
8463;DHT22;4268;52.506;13.462;2023-08-20T07:06:11;25.10;99.90
8463;DHT22;4268;52.506;13.462;2023-08-20T07:08:37;25.00;99.90
8463;DHT22;4268;52.506;13.462;2023-08-20T07:11:05;25.00;99.90
8463;DHT22;4268;52.506;13.462;2023-08-20T07:13:31;25.20;99.90
8463;DHT22;4268;52.506;13.462;2023-08-20T07:15:57;24.90;99.90
8463;DHT22;4268;52.506;13.462;2023-08-20T07:18:24;24.90;99.90
8463;DHT22;4268;52.506;13.462;2023-08-20T07:20:50;24.90;99.90
8463;DHT22;4268;52.506;13.462;2023-08-20T07:23:17;24.90;99.90
8463;DHT22;4268;52.506;13.462;2023-08-20T07:25:43;24.60;99.90
8463;DHT22;4268;52.506;13.462;2023-08-20T07:28:10;24.80;99.90
8463;DHT22;4268;52.506;13.462;2023-08-20T07:30:36;24.80;99.90
8463;DHT22;4268;52.506;13.462;2023-08-20T07:33:02;25.20;99.90
8463;DHT22;4268;52.506;13.462;2023-08-20T07:35:28;25.00;99.90
8463;DHT22;4268;52.506;13.462;2023-08-20T07:37:54;25.20;99.90
8463;DHT22;4268;52.506;13.462;2023-08-20T07:40:20;25.30;99.90
8463;DHT22;4268;52.506;13.462;2023-08-20T07:42:45;25.20;99.90
8463;DHT22;4268;52.506;13.462;2023-08-20T07:45:11;25.30;99.90
8463;DHT22;4268;52.506;13.462;2023-08-20T07:47:37;25.60;99.90
8463;DHT22;4268;52.506;13.462;2023-08-20T07:50:04;26.20;99.90
8463;DHT22;4268;52.506;13.462;2023-08-20T07:52:31;26.40;99.90
8463;DHT22;4268;52.506;13.462;2023-08-20T07:54:56;26.80;99.90
8463;DHT22;4268;52.506;13.462;2023-08-20T07:57:22;26.80;99.90
8463;DHT22;4268;52.506;13.462;2023-08-20T07:59:52;26.50;99.90
8463;DHT22;4268;52.506;13.462;2023-08-20T08:02:18;26.10;99.90
8463;DHT22;4268;52.506;13.462;2023-08-20T08:04:44;25.90;99.90
8463;DHT22;4268;52.506;13.462;2023-08-20T08:07:10;26.00;99.90
8463;DHT22;4268;52.506;13.462;2023-08-20T08:09:36;26.10;99.90
8463;DHT22;4268;52.506;13.462;2023-08-20T08:12:02;26.20;99.90
8463;DHT22;4268;52.506;13.462;2023-08-20T08:14:28;26.40;99.90
8463;DHT22;4268;52.506;13.462;2023-08-20T08:16:54;27.00;99.90
8463;DHT22;4268;52.506;13.462;2023-08-20T08:19:20;26.60;99.90
8463;DHT22;4268;52.506;13.462;2023-08-20T08:21:46;26.60;99.90
8463;DHT22;4268;52.506;13.462;2023-08-20T08:24:12;26.70;99.90
8463;DHT22;4268;52.506;13.462;2023-08-20T08:26:39;27.20;99.90
8463;DHT22;4268;52.506;13.462;2023-08-20T08:29:06;27.60;99.90
8463;DHT22;4268;52.506;13.462;2023-08-20T08:31:32;28.10;99.90
8463;DHT22;4268;52.506;13.462;2023-08-20T08:33:58;28.60;99.90
8463;DHT22;4268;52.506;13.462;2023-08-20T08:36:24;28.70;99.90
8463;DHT22;4268;52.506;13.462;2023-08-20T08:38:54;28.80;99.90
8463;DHT22;4268;52.506;13.462;2023-08-20T08:41:22;29.00;99.90
8463;DHT22;4268;52.506;13.462;2023-08-20T08:43:51;29.10;99.90
8463;DHT22;4268;52.506;13.462;2023-08-20T08:46:17;28.90;99.90
8463;DHT22;4268;52.506;13.462;2023-08-20T08:48:44;28.90;99.90
8463;DHT22;4268;52.506;13.462;2023-08-20T08:51:12;29.00;99.90
8463;DHT22;4268;52.506;13.462;2023-08-20T08:53:38;28.50;99.90
8463;DHT22;4268;52.506;13.462;2023-08-20T08:56:03;28.70;99.90
8463;DHT22;4268;52.506;13.462;2023-08-20T08:58:31;28.90;99.90
8463;DHT22;4268;52.506;13.462;2023-08-20T09:00:56;28.90;99.90
8463;DHT22;4268;52.506;13.462;2023-08-20T09:03:22;29.00;99.90
8463;DHT22;4268;52.506;13.462;2023-08-20T09:05:50;28.90;99.90
8463;DHT22;4268;52.506;13.462;2023-08-20T09:08:26;28.90;99.90
8463;DHT22;4268;52.506;13.462;2023-08-20T09:10:53;28.80;99.90
8463;DHT22;4268;52.506;13.462;2023-08-20T09:13:39;28.60;99.90
8463;DHT22;4268;52.506;13.462;2023-08-20T09:16:09;28.50;99.90
8463;DHT22;4268;52.506;13.462;2023-08-20T09:18:45;28.60;99.90
8463;DHT22;4268;52.506;13.462;2023-08-20T09:21:12;28.70;99.90
8463;DHT22;4268;52.506;13.462;2023-08-20T09:23:38;28.70;99.90
8463;DHT22;4268;52.506;13.462;2023-08-20T09:26:05;28.80;99.90
8463;DHT22;4268;52.506;13.462;2023-08-20T09:28:42;28.90;99.90
8463;DHT22;4268;52.506;13.462;2023-08-20T09:31:07;28.70;99.90
8463;DHT22;4268;52.506;13.462;2023-08-20T09:33:33;28.70;99.90
8463;DHT22;4268;52.506;13.462;2023-08-20T09:35:58;28.50;99.90
8463;DHT22;4268;52.506;13.462;2023-08-20T09:38:24;28.40;99.90
8463;DHT22;4268;52.506;13.462;2023-08-20T09:40:52;28.30;99.90
8463;DHT22;4268;52.506;13.462;2023-08-20T09:43:19;28.20;99.90
8463;DHT22;4268;52.506;13.462;2023-08-20T09:45:46;28.10;99.90
8463;DHT22;4268;52.506;13.462;2023-08-20T09:48:17;28.00;99.90
8463;DHT22;4268;52.506;13.462;2023-08-20T09:50:43;28.00;99.90
8463;DHT22;4268;52.506;13.462;2023-08-20T09:53:22;28.00;99.90
8463;DHT22;4268;52.506;13.462;2023-08-20T09:55:49;28.00;99.90
8463;DHT22;4268;52.506;13.462;2023-08-20T09:58:16;27.80;99.90
8463;DHT22;4268;52.506;13.462;2023-08-20T10:00:42;27.90;99.90
8463;DHT22;4268;52.506;13.462;2023-08-20T10:03:08;27.80;99.90
8463;DHT22;4268;52.506;13.462;2023-08-20T10:05:34;27.80;99.90
8463;DHT22;4268;52.506;13.462;2023-08-20T10:08:00;27.70;99.90
8463;DHT22;4268;52.506;13.462;2023-08-20T10:10:26;27.70;99.90
8463;DHT22;4268;52.506;13.462;2023-08-20T10:12:52;27.70;99.90
8463;DHT22;4268;52.506;13.462;2023-08-20T10:15:17;27.60;99.90
8463;DHT22;4268;52.506;13.462;2023-08-20T10:17:45;27.70;99.90
8463;DHT22;4268;52.506;13.462;2023-08-20T10:20:14;27.80;99.90
8463;DHT22;4268;52.506;13.462;2023-08-20T10:22:42;27.80;99.90
8463;DHT22;4268;52.506;13.462;2023-08-20T10:25:12;27.80;99.90
8463;DHT22;4268;52.506;13.462;2023-08-20T10:27:46;27.60;99.90
8463;DHT22;4268;52.506;13.462;2023-08-20T10:30:23;27.70;99.90
8463;DHT22;4268;52.506;13.462;2023-08-20T10:32:57;27.70;99.90
8463;DHT22;4268;52.506;13.462;2023-08-20T10:35:25;27.80;99.90
8463;DHT22;4268;52.506;13.462;2023-08-20T10:38:07;27.90;99.90
8463;DHT22;4268;52.506;13.462;2023-08-20T10:40:53;28.00;99.90
8463;DHT22;4268;52.506;13.462;2023-08-20T10:43:32;28.00;99.90
8463;DHT22;4268;52.506;13.462;2023-08-20T10:46:14;28.10;99.20
8463;DHT22;4268;52.506;13.462;2023-08-20T10:48:46;28.10;99.00
8463;DHT22;4268;52.506;13.462;2023-08-20T10:51:26;28.10;99.20
8463;DHT22;4268;52.506;13.462;2023-08-20T10:56:54;28.00;97.80
8463;DHT22;4268;52.506;13.462;2023-08-20T10:59:21;28.00;97.50
8463;DHT22;4268;52.506;13.462;2023-08-20T11:01:48;28.10;97.50
8463;DHT22;4268;52.506;13.462;2023-08-20T11:04:18;28.20;97.30
8463;DHT22;4268;52.506;13.462;2023-08-20T11:06:45;28.30;96.50
8463;DHT22;4268;52.506;13.462;2023-08-20T11:09:11;28.20;96.40
8463;DHT22;4268;52.506;13.462;2023-08-20T11:11:40;28.30;96.20
8463;DHT22;4268;52.506;13.462;2023-08-20T11:14:07;28.30;95.80
8463;DHT22;4268;52.506;13.462;2023-08-20T11:16:36;28.50;96.00
8463;DHT22;4268;52.506;13.462;2023-08-20T11:19:02;28.60;94.80
8463;DHT22;4268;52.506;13.462;2023-08-20T11:21:31;28.60;94.90
8463;DHT22;4268;52.506;13.462;2023-08-20T11:23:57;28.60;95.20
8463;DHT22;4268;52.506;13.462;2023-08-20T11:26:22;28.70;94.80
8463;DHT22;4268;52.506;13.462;2023-08-20T11:28:48;28.90;94.80
8463;DHT22;4268;52.506;13.462;2023-08-20T11:31:14;28.90;94.10
8463;DHT22;4268;52.506;13.462;2023-08-20T11:33:40;28.90;93.90
8463;DHT22;4268;52.506;13.462;2023-08-20T11:36:06;29.00;93.50
8463;DHT22;4268;52.506;13.462;2023-08-20T11:38:31;28.80;93.50
8463;DHT22;4268;52.506;13.462;2023-08-20T11:41:00;28.90;94.00
8463;DHT22;4268;52.506;13.462;2023-08-20T11:43:29;28.90;93.40
8463;DHT22;4268;52.506;13.462;2023-08-20T11:45:54;29.00;93.70
8463;DHT22;4268;52.506;13.462;2023-08-20T11:48:21;29.00;93.90
8463;DHT22;4268;52.506;13.462;2023-08-20T11:50:47;29.00;92.90
8463;DHT22;4268;52.506;13.462;2023-08-20T11:53:12;28.90;92.80
8463;DHT22;4268;52.506;13.462;2023-08-20T11:55:40;28.80;92.60
8463;DHT22;4268;52.506;13.462;2023-08-20T11:58:10;28.80;92.80
8463;DHT22;4268;52.506;13.462;2023-08-20T12:00:36;28.80;92.80
8463;DHT22;4268;52.506;13.462;2023-08-20T12:03:02;28.80;92.90
8463;DHT22;4268;52.506;13.462;2023-08-20T12:05:29;28.90;92.40
8463;DHT22;4268;52.506;13.462;2023-08-20T12:07:59;28.90;92.40
8463;DHT22;4268;52.506;13.462;2023-08-20T12:10:26;28.90;92.30
8463;DHT22;4268;52.506;13.462;2023-08-20T12:12:53;29.00;91.70
8463;DHT22;4268;52.506;13.462;2023-08-20T12:15:19;29.00;91.70
8463;DHT22;4268;52.506;13.462;2023-08-20T12:18:02;29.00;91.70
8463;DHT22;4268;52.506;13.462;2023-08-20T12:20:34;29.10;91.50
8463;DHT22;4268;52.506;13.462;2023-08-20T12:23:03;29.10;91.70
8463;DHT22;4268;52.506;13.462;2023-08-20T12:25:34;29.10;91.70
8463;DHT22;4268;52.506;13.462;2023-08-20T12:28:02;29.20;92.00
8463;DHT22;4268;52.506;13.462;2023-08-20T12:30:29;29.10;91.40
8463;DHT22;4268;52.506;13.462;2023-08-20T12:32:55;29.00;91.50
8463;DHT22;4268;52.506;13.462;2023-08-20T12:35:20;29.10;91.50
8463;DHT22;4268;52.506;13.462;2023-08-20T12:37:46;29.10;91.70
8463;DHT22;4268;52.506;13.462;2023-08-20T12:40:12;29.10;91.70
8463;DHT22;4268;52.506;13.462;2023-08-20T12:42:38;29.10;91.30
8463;DHT22;4268;52.506;13.462;2023-08-20T12:45:06;29.10;91.30
8463;DHT22;4268;52.506;13.462;2023-08-20T12:47:32;29.10;91.10
8463;DHT22;4268;52.506;13.462;2023-08-20T12:49:57;29.10;90.30
8463;DHT22;4268;52.506;13.462;2023-08-20T12:52:23;29.10;90.10
8463;DHT22;4268;52.506;13.462;2023-08-20T12:54:48;29.10;90.40
8463;DHT22;4268;52.506;13.462;2023-08-20T12:57:14;29.20;90.10
8463;DHT22;4268;52.506;13.462;2023-08-20T12:59:39;29.10;88.60
8463;DHT22;4268;52.506;13.462;2023-08-20T13:02:05;29.00;88.50
8463;DHT22;4268;52.506;13.462;2023-08-20T13:04:31;28.90;88.50
8463;DHT22;4268;52.506;13.462;2023-08-20T13:06:57;28.90;88.50
8463;DHT22;4268;52.506;13.462;2023-08-20T13:09:22;28.80;88.40
8463;DHT22;4268;52.506;13.462;2023-08-20T13:11:48;28.80;87.20
8463;DHT22;4268;52.506;13.462;2023-08-20T13:14:14;28.80;87.40
8463;DHT22;4268;52.506;13.462;2023-08-20T13:16:40;28.90;87.60
8463;DHT22;4268;52.506;13.462;2023-08-20T13:19:06;28.90;88.50
8463;DHT22;4268;52.506;13.462;2023-08-20T13:21:32;29.00;87.80
8463;DHT22;4268;52.506;13.462;2023-08-20T13:23:57;29.10;87.30
8463;DHT22;4268;52.506;13.462;2023-08-20T13:26:22;29.10;87.20
8463;DHT22;4268;52.506;13.462;2023-08-20T13:28:48;29.00;86.70
8463;DHT22;4268;52.506;13.462;2023-08-20T13:31:14;29.00;87.20
8463;DHT22;4268;52.506;13.462;2023-08-20T13:33:39;29.00;87.30
8463;DHT22;4268;52.506;13.462;2023-08-20T13:36:05;28.90;87.70
8463;DHT22;4268;52.506;13.462;2023-08-20T13:38:32;28.90;85.80
8463;DHT22;4268;52.506;13.462;2023-08-20T13:40:58;28.70;85.90
8463;DHT22;4268;52.506;13.462;2023-08-20T13:43:23;28.90;87.10
8463;DHT22;4268;52.506;13.462;2023-08-20T13:45:49;28.80;84.80
8463;DHT22;4268;52.506;13.462;2023-08-20T13:48:14;28.90;84.80
8463;DHT22;4268;52.506;13.462;2023-08-20T13:50:40;28.90;83.50
8463;DHT22;4268;52.506;13.462;2023-08-20T13:53:05;28.90;83.10
8463;DHT22;4268;52.506;13.462;2023-08-20T13:55:31;28.90;83.10
8463;DHT22;4268;52.506;13.462;2023-08-20T13:57:56;28.90;83.10
8463;DHT22;4268;52.506;13.462;2023-08-20T14:00:22;28.90;81.60
8463;DHT22;4268;52.506;13.462;2023-08-20T14:02:48;28.90;82.30
8463;DHT22;4268;52.506;13.462;2023-08-20T14:05:13;28.90;82.20
8463;DHT22;4268;52.506;13.462;2023-08-20T14:07:39;28.90;80.90
8463;DHT22;4268;52.506;13.462;2023-08-20T14:10:05;28.90;81.20
8463;DHT22;4268;52.506;13.462;2023-08-20T14:12:30;28.90;78.90
8463;DHT22;4268;52.506;13.462;2023-08-20T14:14:56;28.90;79.60
8463;DHT22;4268;52.506;13.462;2023-08-20T14:17:22;29.00;80.70
8463;DHT22;4268;52.506;13.462;2023-08-20T14:19:47;29.00;81.00
8463;DHT22;4268;52.506;13.462;2023-08-20T14:22:13;28.90;80.80
8463;DHT22;4268;52.506;13.462;2023-08-20T14:24:38;28.80;81.40
8463;DHT22;4268;52.506;13.462;2023-08-20T14:27:03;28.80;82.10
8463;DHT22;4268;52.506;13.462;2023-08-20T14:29:29;28.80;80.70
8463;DHT22;4268;52.506;13.462;2023-08-20T14:31:54;28.70;78.80
8463;DHT22;4268;52.506;13.462;2023-08-20T14:34:20;28.70;79.00
8463;DHT22;4268;52.506;13.462;2023-08-20T14:36:45;28.60;76.50
8463;DHT22;4268;52.506;13.462;2023-08-20T14:39:11;28.60;76.20
8463;DHT22;4268;52.506;13.462;2023-08-20T14:41:36;28.60;76.30
8463;DHT22;4268;52.506;13.462;2023-08-20T14:44:02;28.60;74.20
8463;DHT22;4268;52.506;13.462;2023-08-20T14:46:28;28.60;71.40
8463;DHT22;4268;52.506;13.462;2023-08-20T14:48:53;28.50;69.90
8463;DHT22;4268;52.506;13.462;2023-08-20T14:51:21;28.40;70.50
8463;DHT22;4268;52.506;13.462;2023-08-20T14:53:46;28.50;70.70
8463;DHT22;4268;52.506;13.462;2023-08-20T14:56:12;28.50;70.90
8463;DHT22;4268;52.506;13.462;2023-08-20T14:58:37;28.50;70.70
8463;DHT22;4268;52.506;13.462;2023-08-20T15:01:03;28.60;71.50
8463;DHT22;4268;52.506;13.462;2023-08-20T15:03:28;28.70;71.00
8463;DHT22;4268;52.506;13.462;2023-08-20T15:05:54;28.90;70.90
8463;DHT22;4268;52.506;13.462;2023-08-20T15:08:19;28.80;71.60
8463;DHT22;4268;52.506;13.462;2023-08-20T15:10:59;28.80;72.10
8463;DHT22;4268;52.506;13.462;2023-08-20T15:13:28;28.80;72.60
8463;DHT22;4268;52.506;13.462;2023-08-20T15:15:53;28.90;73.20
8463;DHT22;4268;52.506;13.462;2023-08-20T15:18:20;28.90;74.00
8463;DHT22;4268;52.506;13.462;2023-08-20T15:20:45;28.90;74.20
8463;DHT22;4268;52.506;13.462;2023-08-20T15:23:11;28.90;75.10
8463;DHT22;4268;52.506;13.462;2023-08-20T15:25:36;28.90;75.40
8463;DHT22;4268;52.506;13.462;2023-08-20T15:28:02;29.00;74.90
8463;DHT22;4268;52.506;13.462;2023-08-20T15:30:29;29.00;74.80
8463;DHT22;4268;52.506;13.462;2023-08-20T15:32:55;29.10;75.20
8463;DHT22;4268;52.506;13.462;2023-08-20T15:35:20;29.10;75.00
8463;DHT22;4268;52.506;13.462;2023-08-20T15:37:46;29.20;75.80
8463;DHT22;4268;52.506;13.462;2023-08-20T15:40:11;29.20;75.20
8463;DHT22;4268;52.506;13.462;2023-08-20T15:42:38;29.00;75.30
8463;DHT22;4268;52.506;13.462;2023-08-20T15:45:03;28.90;75.40
8463;DHT22;4268;52.506;13.462;2023-08-20T15:47:29;28.90;74.90
8463;DHT22;4268;52.506;13.462;2023-08-20T15:49:54;28.90;75.40